createdAt,value
2023-02-11T00:02:13.112Z,6.90
2023-02-11T00:04:40.927Z,7.50
2023-02-11T00:07:08.840Z,6.40
2023-02-11T00:09:37.844Z,7.30
2023-02-11T00:12:06.039Z,6.70
2023-02-11T00:14:33.990Z,7.30
2023-02-11T00:17:02.000Z,7.30
2023-02-11T00:19:29.921Z,6.20
2023-02-11T00:21:57.867Z,7.00
2023-02-11T00:24:25.993Z,7.50
2023-02-11T00:26:53.938Z,7.70
2023-02-11T00:29:21.752Z,6.90
2023-02-11T00:31:49.881Z,7.70
2023-02-11T00:34:17.830Z,6.90
2023-02-11T00:36:45.845Z,6.40
2023-02-11T00:39:15.624Z,6.30
2023-02-11T00:41:43.675Z,6.50
2023-02-11T00:44:13.954Z,7.00
2023-02-11T00:46:41.886Z,6.50
2023-02-11T00:49:11.876Z,8.20
2023-02-11T00:51:39.944Z,7.70
2023-02-11T00:54:08.245Z,6.30
2023-02-11T00:56:36.499Z,7.80
2023-02-11T00:59:04.310Z,7.20
2023-02-11T01:01:32.291Z,6.70
2023-02-11T01:04:00.500Z,7.30
2023-02-11T01:06:28.470Z,7.40
2023-02-11T01:08:56.546Z,5.30
2023-02-11T01:11:24.399Z,6.00
2023-02-11T01:13:52.502Z,6.20
2023-02-11T01:16:21.776Z,7.80
2023-02-11T01:18:49.821Z,7.80
2023-02-11T01:21:19.486Z,7.70
2023-02-11T01:23:47.632Z,7.50
2023-02-11T01:26:15.459Z,7.80
2023-02-11T01:28:43.271Z,7.70
2023-02-11T01:31:11.086Z,8.30
2023-02-11T01:33:39.112Z,7.00
2023-02-11T01:36:07.927Z,7.60
2023-02-11T01:38:36.044Z,8.10
2023-02-11T01:41:10.207Z,8.10
2023-02-11T01:43:41.542Z,7.20
2023-02-11T01:46:32.406Z,6.90
2023-02-11T01:49:12.975Z,6.80
2023-02-11T01:51:47.042Z,7.80
2023-02-11T01:54:39.119Z,7.80
2023-02-11T01:57:22.990Z,8.40
2023-02-11T02:00:13.272Z,8.00
2023-02-11T02:03:06.590Z,7.10
2023-02-11T02:06:41.560Z,7.60
2023-02-11T02:09:15.306Z,7.90
2023-02-11T02:11:43.247Z,7.90
2023-02-11T02:14:11.248Z,8.00
2023-02-11T02:16:39.363Z,8.20
2023-02-11T02:19:10.506Z,7.70
2023-02-11T02:22:06.256Z,7.80
2023-02-11T02:25:19.752Z,7.00
2023-02-11T02:28:06.122Z,8.10
2023-02-11T02:31:23.090Z,8.30
2023-02-11T02:34:02.905Z,7.50
2023-02-11T02:36:49.335Z,7.80
2023-02-11T02:39:26.917Z,8.40
2023-02-11T02:41:54.814Z,9.40
2023-02-11T02:44:22.731Z,8.20
2023-02-11T02:46:50.895Z,8.80
2023-02-11T02:49:18.999Z,9.30
2023-02-11T02:51:56.032Z,9.00
2023-02-11T02:55:06.565Z,8.70
2023-02-11T02:57:55.655Z,8.50
2023-02-11T03:00:29.921Z,9.60
2023-02-11T03:03:26.465Z,8.80
2023-02-11T03:06:24.037Z,8.80
2023-02-11T03:09:12.845Z,8.70
2023-02-11T03:11:40.980Z,9.30
2023-02-11T03:14:11.511Z,9.00
2023-02-11T03:16:39.481Z,9.30
2023-02-11T03:19:14.227Z,9.30
2023-02-11T03:21:42.884Z,9.80
2023-02-11T03:24:30.668Z,9.60
2023-02-11T03:27:03.796Z,10.00
2023-02-11T03:29:46.252Z,9.90
2023-02-11T03:32:29.405Z,9.20
2023-02-11T03:35:07.631Z,10.50
2023-02-11T03:37:42.609Z,9.30
2023-02-11T03:40:22.737Z,11.30
2023-02-11T03:42:58.580Z,10.20
2023-02-11T03:45:26.657Z,10.70
2023-02-11T03:48:13.313Z,11.40
2023-02-11T03:50:41.136Z,10.70
2023-02-11T03:53:08.974Z,10.60
2023-02-11T03:55:39.498Z,10.90
2023-02-11T03:58:07.615Z,10.30
2023-02-11T04:00:39.680Z,11.70
2023-02-11T04:03:08.461Z,10.90
2023-02-11T04:05:36.836Z,11.90
2023-02-11T04:08:05.168Z,11.00
2023-02-11T04:10:33.247Z,10.70
2023-02-11T04:13:01.226Z,10.20
2023-02-11T04:15:29.168Z,11.50
2023-02-11T04:17:56.973Z,11.80
2023-02-11T04:20:24.906Z,11.10
2023-02-11T04:22:52.790Z,10.20
2023-02-11T04:25:20.951Z,11.00
2023-02-11T04:27:48.712Z,10.30
2023-02-11T04:30:16.678Z,10.90
2023-02-11T04:32:44.647Z,11.00
2023-02-11T04:35:12.507Z,9.70
2023-02-11T04:37:40.487Z,10.30
2023-02-11T04:40:09.889Z,9.90
2023-02-11T04:42:37.840Z,10.70
2023-02-11T04:45:07.878Z,11.80
2023-02-11T04:47:36.458Z,11.10
2023-02-11T04:50:05.006Z,10.90
2023-02-11T04:52:33.025Z,11.40
2023-02-11T04:55:01.090Z,11.30
2023-02-11T04:57:28.806Z,10.90
2023-02-11T04:59:56.633Z,11.30
2023-02-11T05:02:24.554Z,10.20
2023-02-11T05:04:52.503Z,12.10
2023-02-11T05:07:20.408Z,12.10
2023-02-11T05:09:48.226Z,10.50
2023-02-11T05:12:16.157Z,10.00
2023-02-11T05:14:44.142Z,11.10
2023-02-11T05:17:12.112Z,13.40
2023-02-11T05:19:40.246Z,10.60
2023-02-11T05:22:08.424Z,12.90
2023-02-11T05:24:36.422Z,11.70
2023-02-11T05:27:04.563Z,10.60
2023-02-11T05:29:32.514Z,11.40
2023-02-11T05:32:00.331Z,11.40
2023-02-11T05:34:28.361Z,10.20
2023-02-11T05:36:56.413Z,11.40
2023-02-11T05:39:24.318Z,10.50
